createdAt,value
2023-03-02T00:01:06.312Z,13.23
2023-03-02T00:06:10.640Z,14.53
2023-03-02T00:11:15.663Z,12.87
2023-03-02T00:16:20.541Z,13.07
2023-03-02T00:21:24.645Z,12.83
2023-03-02T00:26:28.115Z,12.00
2023-03-02T00:31:34.084Z,12.70
2023-03-02T00:36:37.571Z,11.23
2023-03-02T00:41:40.967Z,11.77
2023-03-02T00:46:46.437Z,11.53
2023-03-02T00:51:49.849Z,11.70
2023-03-02T00:56:53.203Z,12.37
2023-03-02T01:02:01.696Z,11.90
2023-03-02T01:07:10.759Z,11.20
2023-03-02T01:12:14.369Z,11.53
2023-03-02T01:17:19.201Z,11.57
2023-03-02T01:22:22.845Z,11.03
2023-03-02T01:27:26.183Z,11.40
2023-03-02T01:32:31.325Z,11.37
2023-03-02T01:37:34.993Z,12.00
2023-03-02T01:42:40.473Z,11.77
2023-03-02T01:47:45.403Z,10.70
2023-03-02T01:52:55.924Z,11.03
2023-03-02T01:58:02.942Z,12.47
2023-03-02T02:03:13.186Z,11.17
2023-03-02T02:08:16.865Z,12.07
2023-03-02T02:13:20.606Z,12.30
2023-03-02T02:18:27.529Z,12.33
2023-03-02T02:23:36.082Z,12.07
2023-03-02T02:28:44.936Z,11.93
2023-03-02T02:33:52.906Z,13.03
2023-03-02T02:38:58.229Z,13.13
2023-03-02T02:44:03.319Z,13.10
2023-03-02T02:49:08.021Z,12.67
2023-03-02T02:54:18.187Z,12.90
2023-03-02T02:59:29.384Z,12.10
2023-03-02T03:04:35.892Z,14.00
2023-03-02T03:09:39.516Z,12.87
2023-03-02T03:14:45.263Z,13.13
2023-03-02T03:19:49.300Z,14.13
2023-03-02T03:24:53.510Z,14.13
2023-03-02T03:29:58.484Z,14.80
2023-03-02T03:35:03.626Z,15.00
2023-03-02T03:40:10.895Z,13.90
2023-03-02T03:45:19.174Z,16.17
2023-03-02T03:50:23.026Z,16.90
2023-03-02T03:55:28.503Z,16.57
2023-03-02T04:00:33.920Z,16.63
2023-03-02T04:05:43.209Z,15.70
2023-03-02T04:10:47.597Z,16.90
2023-03-02T04:15:52.603Z,17.43
2023-03-02T04:20:56.240Z,15.97
2023-03-02T04:26:05.180Z,17.33
2023-03-02T04:31:10.833Z,16.57
2023-03-02T04:36:14.682Z,16.43
2023-03-02T04:41:19.511Z,17.57
2023-03-02T04:46:26.578Z,18.00
2023-03-02T04:51:33.133Z,17.67
2023-03-02T04:56:36.706Z,17.10
2023-03-02T05:01:41.626Z,17.57
2023-03-02T05:06:45.089Z,18.90
2023-03-02T05:11:48.767Z,18.13
2023-03-02T05:16:53.949Z,18.13
2023-03-02T05:21:57.959Z,18.60
2023-03-02T05:27:02.016Z,19.17
2023-03-02T05:32:07.082Z,19.20
2023-03-02T05:37:10.498Z,19.73
2023-03-02T05:42:14.279Z,18.47
2023-03-02T05:47:19.026Z,20.10
2023-03-02T05:52:22.422Z,18.70
2023-03-02T05:57:25.867Z,19.10
2023-03-02T06:02:30.676Z,18.03
2023-03-02T06:07:34.124Z,18.43
2023-03-02T06:12:37.793Z,19.53
2023-03-02T06:17:42.748Z,18.57
2023-03-02T06:22:47.951Z,19.53
2023-03-02T06:27:53.793Z,19.77
2023-03-02T06:32:59.207Z,20.47
2023-03-02T06:38:02.594Z,27.67
2023-03-02T06:43:06.005Z,29.87
2023-03-02T06:48:10.915Z,26.10
2023-03-02T06:53:15.307Z,20.83
2023-03-02T06:58:18.980Z,21.30
2023-03-02T07:03:23.751Z,20.13
2023-03-02T07:08:27.267Z,19.67
2023-03-02T07:13:31.373Z,19.63
2023-03-02T07:18:36.534Z,19.03
2023-03-02T07:23:40.011Z,20.07
2023-03-02T07:28:44.483Z,18.70
2023-03-02T07:33:49.241Z,19.60
2023-03-02T07:38:52.856Z,18.33
2023-03-02T07:43:57.083Z,16.97
2023-03-02T07:49:02.395Z,18.37
2023-03-02T07:54:05.894Z,18.20
2023-03-02T07:59:09.752Z,16.80
2023-03-02T08:04:14.561Z,18.50
2023-03-02T08:09:18.116Z,17.30
2023-03-02T08:14:21.510Z,17.37
2023-03-02T08:19:27.048Z,17.63
2023-03-02T08:24:30.415Z,18.43
2023-03-02T08:29:33.812Z,17.13
2023-03-02T08:34:39.037Z,17.60
2023-03-02T08:39:42.688Z,16.50
2023-03-02T08:44:46.298Z,16.30
2023-03-02T08:49:51.318Z,16.53
2023-03-02T08:54:54.715Z,15.73
2023-03-02T08:59:58.425Z,14.63
2023-03-02T09:05:03.181Z,15.07
2023-03-02T09:10:07.138Z,14.20
2023-03-02T09:15:11.125Z,14.00
2023-03-02T09:20:16.313Z,14.37
2023-03-02T09:25:20.171Z,12.67
2023-03-02T09:30:23.611Z,13.37
2023-03-02T09:35:28.459Z,14.77
2023-03-02T09:40:35.035Z,15.17
2023-03-02T09:45:53.393Z,14.30
2023-03-02T09:51:13.685Z,14.50
2023-03-02T09:56:19.410Z,15.90
2023-03-02T10:01:35.101Z,17.30
2023-03-02T10:06:39.927Z,17.23
2023-03-02T10:11:59.138Z,15.23
2023-03-02T10:17:18.937Z,16.30
2023-03-02T10:22:31.807Z,15.53
2023-03-02T10:27:39.955Z,14.97
2023-03-02T10:32:47.310Z,15.90
2023-03-02T10:37:53.250Z,14.60
2023-03-02T10:42:58.886Z,15.50
2023-03-02T10:48:03.742Z,14.37
2023-03-02T10:53:17.197Z,15.33
2023-03-02T10:58:26.281Z,15.03
2023-03-02T11:03:31.461Z,16.87
2023-03-02T11:08:36.211Z,15.63
2023-03-02T11:13:41.159Z,16.00
2023-03-02T11:18:50.090Z,15.73
2023-03-02T11:24:01.212Z,16.40
2023-03-02T11:29:07.550Z,16.47
2023-03-02T11:34:24.329Z,16.27
2023-03-02T11:39:46.388Z,16.17
2023-03-02T11:44:56.940Z,17.50
2023-03-02T11:50:05.375Z,17.90
2023-03-02T11:55:18.568Z,18.33
2023-03-02T12:00:32.719Z,18.03
2023-03-02T12:05:39.911Z,17.70
2023-03-02T12:10:57.752Z,18.80
2023-03-02T12:16:01.654Z,17.43
2023-03-02T12:21:06.868Z,16.70
2023-03-02T12:26:28.158Z,16.43
2023-03-02T12:31:43.758Z,15.93
2023-03-02T12:36:48.587Z,16.20
2023-03-02T12:42:14.021Z,15.00
2023-03-02T12:47:26.133Z,15.47
2023-03-02T12:52:32.336Z,14.10
2023-03-02T12:57:39.431Z,13.17
2023-03-02T13:02:48.537Z,13.00
2023-03-02T13:07:59.463Z,11.77
2023-03-02T13:13:14.790Z,10.20
2023-03-02T13:18:18.619Z,10.17
2023-03-02T13:23:22.694Z,9.43
2023-03-02T13:28:30.538Z,10.30
2023-03-02T13:33:36.537Z,10.00
2023-03-02T13:38:40.127Z,9.90
2023-03-02T13:43:45.310Z,10.23
2023-03-02T13:49:09.072Z,11.43
2023-03-02T13:54:21.193Z,12.17
2023-03-02T13:59:26.921Z,13.03
2023-03-02T14:04:30.808Z,13.37
2023-03-02T14:09:34.505Z,11.43
2023-03-02T14:14:44.452Z,11.97
2023-03-02T14:19:53.139Z,11.53
2023-03-02T14:24:56.750Z,11.40
2023-03-02T14:30:01.960Z,10.97
2023-03-02T14:35:11.488Z,11.50
2023-03-02T14:40:18.652Z,11.30
2023-03-02T14:45:24.135Z,11.07
2023-03-02T14:50:27.820Z,11.87
2023-03-02T14:55:34.156Z,10.93
2023-03-02T15:00:39.184Z,12.03
2023-03-02T15:05:51.805Z,11.73
2023-03-02T15:11:02.546Z,11.33
2023-03-02T15:16:10.814Z,12.53
2023-03-02T15:21:18.229Z,12.03
2023-03-02T15:26:21.836Z,12.97
2023-03-02T15:31:28.353Z,12.93
2023-03-02T15:36:32.580Z,11.60
2023-03-02T15:41:36.235Z,10.87
2023-03-02T15:46:41.220Z,12.53
2023-03-02T15:51:44.626Z,12.10
2023-03-02T15:56:52.051Z,11.77
2023-03-02T16:01:59.681Z,11.03
2023-03-02T16:07:03.209Z,12.03
2023-03-02T16:12:07.484Z,9.93
2023-03-02T16:17:12.776Z,10.97
2023-03-02T16:22:16.342Z,11.47
2023-03-02T16:27:20.251Z,12.03
2023-03-02T16:32:25.095Z,12.07
2023-03-02T16:37:28.597Z,11.30
2023-03-02T16:42:32.001Z,11.60
2023-03-02T16:47:37.391Z,11.77
2023-03-02T16:52:40.836Z,11.40
2023-03-02T16:57:44.729Z,12.67
2023-03-02T17:02:50.271Z,15.23
2023-03-02T17:07:53.991Z,11.40
2023-03-02T17:12:57.389Z,10.90
2023-03-02T17:18:02.433Z,10.77
2023-03-02T17:23:06.176Z,10.13
2023-03-02T17:28:10.035Z,12.63
2023-03-02T17:33:14.881Z,11.40
2023-03-02T17:38:21.720Z,11.63
2023-03-02T17:43:25.455Z,12.43
2023-03-02T17:48:30.549Z,11.77
2023-03-02T17:53:33.975Z,12.40
2023-03-02T17:58:44.643Z,11.50
2023-03-02T18:03:50.452Z,11.67
2023-03-02T18:08:54.174Z,10.47
2023-03-02T18:13:58.093Z,11.07
2023-03-02T18:19:03.068Z,13.10
2023-03-02T18:24:07.357Z,10.80
2023-03-02T18:29:10.945Z,12.40
2023-03-02T18:34:16.148Z,11.83
2023-03-02T18:39:19.591Z,11.77
2023-03-02T18:44:28.261Z,12.10
2023-03-02T18:49:35.583Z,12.10
2023-03-02T18:54:42.147Z,11.83
2023-03-02T18:59:51.533Z,11.93
2023-03-02T19:04:56.513Z,12.83
2023-03-02T19:10:01.982Z,11.90
2023-03-02T19:15:10.521Z,11.97
2023-03-02T19:20:17.878Z,12.60
2023-03-02T19:25:21.924Z,12.33
2023-03-02T19:30:27.676Z,14.33
2023-03-02T19:35:32.478Z,14.27
2023-03-02T19:40:37.047Z,12.97
2023-03-02T19:45:41.608Z,12.77
2023-03-02T19:50:46.886Z,12.03
2023-03-02T19:55:51.515Z,12.13
2023-03-02T20:00:55.601Z,12.63
2023-03-02T20:06:00.433Z,12.67
2023-03-02T20:11:03.830Z,13.13
2023-03-02T20:16:08.530Z,12.57
2023-03-02T20:21:13.323Z,11.70
2023-03-02T20:26:17.326Z,11.90
2023-03-02T20:31:21.426Z,12.17
2023-03-02T20:36:29.711Z,13.07
2023-03-02T20:41:33.518Z,13.80
2023-03-02T20:46:39.829Z,14.13
2023-03-02T20:51:52.746Z,13.40
2023-03-02T20:56:56.874Z,12.87
2023-03-02T21:02:00.422Z,13.43
2023-03-02T21:07:05.352Z,13.90
2023-03-02T21:12:11.947Z,13.73
2023-03-02T21:17:15.737Z,13.40
2023-03-02T21:22:20.867Z,13.17
2023-03-02T21:27:24.947Z,13.23
2023-03-02T21:32:28.550Z,12.40
2023-03-02T21:37:33.347Z,13.47
2023-03-02T21:42:36.985Z,11.33
2023-03-02T21:47:41.538Z,12.63
2023-03-02T21:52:46.653Z,11.77
2023-03-02T21:57:50.321Z,11.73
2023-03-02T22:02:54.511Z,11.77
2023-03-02T22:07:59.744Z,10.77
2023-03-02T22:13:17.526Z,11.50
2023-03-02T22:18:25.135Z,11.27
2023-03-02T22:23:30.018Z,10.67
2023-03-02T22:28:39.394Z,11.37
2023-03-02T22:33:42.754Z,11.37
2023-03-02T22:38:48.003Z,11.50
2023-03-02T22:43:53.035Z,11.27
2023-03-02T22:48:57.037Z,11.37
2023-03-02T22:54:02.472Z,10.30
2023-03-02T22:59:10.366Z,10.57
2023-03-02T23:04:20.801Z,11.33
2023-03-02T23:09:27.672Z,11.87
2023-03-02T23:14:40.276Z,10.43
2023-03-02T23:19:43.648Z,10.67
2023-03-02T23:24:48.425Z,10.67
2023-03-02T23:29:52.007Z,10.83
2023-03-02T23:34:55.605Z,10.00
2023-03-02T23:40:00.617Z,9.60
2023-03-02T23:45:04.282Z,10.40
2023-03-02T23:50:09.004Z,10.63
2023-03-02T23:55:13.792Z,10.00
